Terminal Aerodrome Forecast
Issued by NWS

Home | Current Version | Previous Version | Text Only | Print | Product List | Glossary On
Versions: 1 2 3 4 5 6 7 8 9 10 11 12 13
577
FTPA31 PHFO 271739
TAFHJR
TAF
PHJR 271739Z 2718/2818 05005KT P6SM VCSH FEW025 BKN050
     FM272000 09009G17KT P6SM FEW025 SCT050 BKN250
     FM280500 06005KT P6SM VCSH FEW025 SCT050 BKN250=

USA.gov is the U.S. government's official web portal to all federal, state and local government web resources and services.